sensor_id;sensor_type;location;lat;lon;timestamp;P1;durP1;ratioP1;P2;durP2;ratioP2
24521;SDS011;12680;57.804;12.190;2023-05-16T00:01:45;4.95;;;4.32;;
24521;SDS011;12680;57.804;12.190;2023-05-16T00:04:11;6.97;;;4.72;;
24521;SDS011;12680;57.804;12.190;2023-05-16T00:06:38;5.80;;;4.45;;
24521;SDS011;12680;57.804;12.190;2023-05-16T00:09:05;4.85;;;4.45;;
24521;SDS011;12680;57.804;12.190;2023-05-16T00:11:32;6.15;;;4.82;;
24521;SDS011;12680;57.804;12.190;2023-05-16T00:13:59;5.10;;;4.60;;
24521;SDS011;12680;57.804;12.190;2023-05-16T00:16:26;5.85;;;4.32;;
24521;SDS011;12680;57.804;12.190;2023-05-16T00:18:55;5.47;;;4.10;;
24521;SDS011;12680;57.804;12.190;2023-05-16T00:21:26;5.00;;;4.50;;
24521;SDS011;12680;57.804;12.190;2023-05-16T00:23:53;6.05;;;4.60;;
24521;SDS011;12680;57.804;12.190;2023-05-16T00:26:19;5.95;;;4.65;;
24521;SDS011;12680;57.804;12.190;2023-05-16T00:28:47;5.82;;;4.80;;
24521;SDS011;12680;57.804;12.190;2023-05-16T00:31:14;6.57;;;5.40;;
24521;SDS011;12680;57.804;12.190;2023-05-16T00:33:40;6.25;;;5.32;;
24521;SDS011;12680;57.804;12.190;2023-05-16T00:36:07;5.80;;;5.30;;
24521;SDS011;12680;57.804;12.190;2023-05-16T00:38:34;5.82;;;4.68;;
24521;SDS011;12680;57.804;12.190;2023-05-16T00:41:01;5.93;;;5.25;;
24521;SDS011;12680;57.804;12.190;2023-05-16T00:43:29;8.43;;;5.35;;
24521;SDS011;12680;57.804;12.190;2023-05-16T00:45:56;6.03;;;5.13;;
24521;SDS011;12680;57.804;12.190;2023-05-16T00:48:26;7.32;;;4.97;;
24521;SDS011;12680;57.804;12.190;2023-05-16T00:50:53;5.28;;;4.78;;
24521;SDS011;12680;57.804;12.190;2023-05-16T00:53:19;5.80;;;5.10;;
24521;SDS011;12680;57.804;12.190;2023-05-16T00:55:46;5.40;;;4.65;;
24521;SDS011;12680;57.804;12.190;2023-05-16T00:58:13;5.72;;;5.10;;
24521;SDS011;12680;57.804;12.190;2023-05-16T01:00:41;5.57;;;5.05;;
24521;SDS011;12680;57.804;12.190;2023-05-16T01:03:08;6.38;;;5.55;;
24521;SDS011;12680;57.804;12.190;2023-05-16T01:05:35;8.55;;;6.18;;
24521;SDS011;12680;57.804;12.190;2023-05-16T01:08:01;6.03;;;5.35;;
24521;SDS011;12680;57.804;12.190;2023-05-16T01:10:30;6.80;;;6.00;;
24521;SDS011;12680;57.804;12.190;2023-05-16T01:13:17;8.07;;;5.90;;
24521;SDS011;12680;57.804;12.190;2023-05-16T01:16:09;5.60;;;5.05;;
24521;SDS011;12680;57.804;12.190;2023-05-16T01:18:59;7.93;;;5.85;;
24521;SDS011;12680;57.804;12.190;2023-05-16T01:21:48;7.97;;;6.60;;
24521;SDS011;12680;57.804;12.190;2023-05-16T01:24:34;7.30;;;6.43;;
24521;SDS011;12680;57.804;12.190;2023-05-16T01:27:26;10.50;;;6.28;;
24521;SDS011;12680;57.804;12.190;2023-05-16T01:29:56;7.40;;;6.65;;
24521;SDS011;12680;57.804;12.190;2023-05-16T01:32:23;7.55;;;6.75;;
24521;SDS011;12680;57.804;12.190;2023-05-16T01:34:50;7.07;;;6.15;;
24521;SDS011;12680;57.804;12.190;2023-05-16T01:37:23;6.32;;;5.53;;
24521;SDS011;12680;57.804;12.190;2023-05-16T01:39:56;11.15;;;6.53;;
24521;SDS011;12680;57.804;12.190;2023-05-16T01:42:31;8.48;;;6.63;;
24521;SDS011;12680;57.804;12.190;2023-05-16T01:45:05;9.95;;;6.85;;
24521;SDS011;12680;57.804;12.190;2023-05-16T01:47:40;10.07;;;7.45;;
24521;SDS011;12680;57.804;12.190;2023-05-16T01:50:13;7.80;;;6.30;;
24521;SDS011;12680;57.804;12.190;2023-05-16T01:52:49;9.23;;;7.07;;
24521;SDS011;12680;57.804;12.190;2023-05-16T01:55:28;7.18;;;5.78;;
24521;SDS011;12680;57.804;12.190;2023-05-16T01:58:09;7.93;;;6.80;;
24521;SDS011;12680;57.804;12.190;2023-05-16T02:00:38;8.90;;;6.82;;
24521;SDS011;12680;57.804;12.190;2023-05-16T02:03:06;9.35;;;7.15;;
24521;SDS011;12680;57.804;12.190;2023-05-16T02:05:33;10.25;;;7.65;;
24521;SDS011;12680;57.804;12.190;2023-05-16T02:08:00;8.25;;;6.97;;
24521;SDS011;12680;57.804;12.190;2023-05-16T02:10:26;9.85;;;8.27;;
24521;SDS011;12680;57.804;12.190;2023-05-16T02:12:53;8.55;;;7.65;;
24521;SDS011;12680;57.804;12.190;2023-05-16T02:15:20;10.45;;;8.00;;
24521;SDS011;12680;57.804;12.190;2023-05-16T02:17:47;10.73;;;8.27;;
24521;SDS011;12680;57.804;12.190;2023-05-16T02:20:14;11.18;;;8.27;;
24521;SDS011;12680;57.804;12.190;2023-05-16T02:22:41;12.85;;;9.15;;
24521;SDS011;12680;57.804;12.190;2023-05-16T02:25:09;9.35;;;7.75;;
24521;SDS011;12680;57.804;12.190;2023-05-16T02:27:36;9.88;;;8.48;;
24521;SDS011;12680;57.804;12.190;2023-05-16T02:30:03;10.23;;;8.32;;
24521;SDS011;12680;57.804;12.190;2023-05-16T02:32:31;10.20;;;8.63;;
24521;SDS011;12680;57.804;12.190;2023-05-16T02:34:59;9.13;;;7.85;;
24521;SDS011;12680;57.804;12.190;2023-05-16T02:37:25;12.70;;;8.23;;
24521;SDS011;12680;57.804;12.190;2023-05-16T02:39:52;9.00;;;7.68;;
24521;SDS011;12680;57.804;12.190;2023-05-16T02:42:19;10.30;;;8.50;;
24521;SDS011;12680;57.804;12.190;2023-05-16T02:44:46;9.65;;;7.90;;
24521;SDS011;12680;57.804;12.190;2023-05-16T02:47:12;10.18;;;8.23;;
24521;SDS011;12680;57.804;12.190;2023-05-16T02:49:39;10.75;;;8.32;;
24521;SDS011;12680;57.804;12.190;2023-05-16T02:52:06;10.45;;;8.23;;
24521;SDS011;12680;57.804;12.190;2023-05-16T02:54:33;10.40;;;8.80;;
24521;SDS011;12680;57.804;12.190;2023-05-16T02:57:00;9.00;;;7.72;;
24521;SDS011;12680;57.804;12.190;2023-05-16T02:59:26;11.05;;;8.68;;
24521;SDS011;12680;57.804;12.190;2023-05-16T03:01:53;8.30;;;6.88;;
24521;SDS011;12680;57.804;12.190;2023-05-16T03:04:20;8.52;;;7.28;;
24521;SDS011;12680;57.804;12.190;2023-05-16T03:06:48;9.75;;;8.07;;
24521;SDS011;12680;57.804;12.190;2023-05-16T03:09:16;10.77;;;7.95;;
24521;SDS011;12680;57.804;12.190;2023-05-16T03:11:43;9.57;;;8.10;;
24521;SDS011;12680;57.804;12.190;2023-05-16T03:14:11;10.25;;;8.18;;
24521;SDS011;12680;57.804;12.190;2023-05-16T03:16:38;10.88;;;8.88;;
24521;SDS011;12680;57.804;12.190;2023-05-16T03:19:06;10.27;;;8.55;;
24521;SDS011;12680;57.804;12.190;2023-05-16T03:21:33;10.35;;;8.02;;
24521;SDS011;12680;57.804;12.190;2023-05-16T03:24:01;10.13;;;8.23;;
24521;SDS011;12680;57.804;12.190;2023-05-16T03:26:29;10.57;;;7.70;;
24521;SDS011;12680;57.804;12.190;2023-05-16T03:28:56;10.10;;;8.48;;
24521;SDS011;12680;57.804;12.190;2023-05-16T03:31:22;10.43;;;8.15;;
24521;SDS011;12680;57.804;12.190;2023-05-16T03:33:49;8.98;;;7.57;;
24521;SDS011;12680;57.804;12.190;2023-05-16T03:36:16;10.82;;;8.63;;
24521;SDS011;12680;57.804;12.190;2023-05-16T03:38:46;10.38;;;7.80;;
24521;SDS011;12680;57.804;12.190;2023-05-16T03:41:13;11.40;;;8.60;;
24521;SDS011;12680;57.804;12.190;2023-05-16T03:43:40;11.20;;;8.80;;
24521;SDS011;12680;57.804;12.190;2023-05-16T03:46:07;14.52;;;9.00;;
24521;SDS011;12680;57.804;12.190;2023-05-16T03:48:34;10.80;;;8.85;;
24521;SDS011;12680;57.804;12.190;2023-05-16T03:51:01;9.27;;;7.78;;
24521;SDS011;12680;57.804;12.190;2023-05-16T03:53:27;9.52;;;7.88;;
24521;SDS011;12680;57.804;12.190;2023-05-16T03:55:54;9.60;;;8.07;;
24521;SDS011;12680;57.804;12.190;2023-05-16T03:58:21;10.68;;;8.70;;
24521;SDS011;12680;57.804;12.190;2023-05-16T04:00:48;10.35;;;8.55;;
24521;SDS011;12680;57.804;12.190;2023-05-16T04:03:14;11.32;;;8.57;;
24521;SDS011;12680;57.804;12.190;2023-05-16T04:05:41;9.57;;;8.05;;
24521;SDS011;12680;57.804;12.190;2023-05-16T04:08:08;10.90;;;8.63;;
24521;SDS011;12680;57.804;12.190;2023-05-16T04:10:35;10.43;;;8.80;;
24521;SDS011;12680;57.804;12.190;2023-05-16T04:13:02;10.90;;;9.18;;
24521;SDS011;12680;57.804;12.190;2023-05-16T04:15:28;10.65;;;8.75;;
24521;SDS011;12680;57.804;12.190;2023-05-16T04:17:55;9.95;;;8.65;;
24521;SDS011;12680;57.804;12.190;2023-05-16T04:20:22;11.00;;;8.90;;
24521;SDS011;12680;57.804;12.190;2023-05-16T04:22:49;9.32;;;8.15;;
24521;SDS011;12680;57.804;12.190;2023-05-16T04:25:15;12.25;;;9.57;;
24521;SDS011;12680;57.804;12.190;2023-05-16T04:27:42;11.57;;;9.48;;
24521;SDS011;12680;57.804;12.190;2023-05-16T04:30:09;10.65;;;8.43;;
24521;SDS011;12680;57.804;12.190;2023-05-16T04:32:37;13.10;;;10.40;;
24521;SDS011;12680;57.804;12.190;2023-05-16T04:35:03;11.90;;;9.65;;
24521;SDS011;12680;57.804;12.190;2023-05-16T04:37:30;12.60;;;10.80;;
24521;SDS011;12680;57.804;12.190;2023-05-16T04:39:57;13.63;;;10.75;;
24521;SDS011;12680;57.804;12.190;2023-05-16T04:42:24;14.18;;;11.63;;
24521;SDS011;12680;57.804;12.190;2023-05-16T04:44:51;18.45;;;11.70;;
24521;SDS011;12680;57.804;12.190;2023-05-16T04:47:17;16.38;;;11.63;;
24521;SDS011;12680;57.804;12.190;2023-05-16T04:49:44;17.27;;;13.10;;
24521;SDS011;12680;57.804;12.190;2023-05-16T04:52:11;17.65;;;13.20;;
24521;SDS011;12680;57.804;12.190;2023-05-16T04:54:38;17.27;;;12.65;;
24521;SDS011;12680;57.804;12.190;2023-05-16T04:57:05;18.00;;;12.77;;
24521;SDS011;12680;57.804;12.190;2023-05-16T04:59:31;16.35;;;12.00;;
24521;SDS011;12680;57.804;12.190;2023-05-16T05:01:58;14.65;;;11.13;;
24521;SDS011;12680;57.804;12.190;2023-05-16T05:04:25;22.70;;;16.00;;
24521;SDS011;12680;57.804;12.190;2023-05-16T05:06:52;22.50;;;15.82;;
24521;SDS011;12680;57.804;12.190;2023-05-16T05:09:19;20.35;;;14.65;;
24521;SDS011;12680;57.804;12.190;2023-05-16T05:11:46;22.08;;;14.55;;
24521;SDS011;12680;57.804;12.190;2023-05-16T05:14:12;17.45;;;13.98;;
24521;SDS011;12680;57.804;12.190;2023-05-16T05:16:39;16.88;;;13.77;;
24521;SDS011;12680;57.804;12.190;2023-05-16T05:19:06;15.18;;;12.35;;
24521;SDS011;12680;57.804;12.190;2023-05-16T05:21:34;13.43;;;11.00;;
24521;SDS011;12680;57.804;12.190;2023-05-16T05:24:00;12.70;;;10.80;;
24521;SDS011;12680;57.804;12.190;2023-05-16T05:26:27;13.82;;;11.27;;
24521;SDS011;12680;57.804;12.190;2023-05-16T05:28:54;12.30;;;10.80;;
24521;SDS011;12680;57.804;12.190;2023-05-16T05:31:31;14.05;;;10.85;;
24521;SDS011;12680;57.804;12.190;2023-05-16T05:34:00;11.88;;;10.10;;
24521;SDS011;12680;57.804;12.190;2023-05-16T05:36:27;11.60;;;10.27;;
24521;SDS011;12680;57.804;12.190;2023-05-16T05:38:54;10.77;;;9.60;;
24521;SDS011;12680;57.804;12.190;2023-05-16T05:41:21;12.27;;;10.00;;
24521;SDS011;12680;57.804;12.190;2023-05-16T05:43:47;12.30;;;10.05;;
24521;SDS011;12680;57.804;12.190;2023-05-16T05:46:14;14.02;;;10.88;;
24521;SDS011;12680;57.804;12.190;2023-05-16T05:48:42;13.13;;;9.23;;
24521;SDS011;12680;57.804;12.190;2023-05-16T05:51:09;12.68;;;10.80;;
24521;SDS011;12680;57.804;12.190;2023-05-16T05:53:36;11.77;;;10.02;;
24521;SDS011;12680;57.804;12.190;2023-05-16T05:56:03;11.90;;;9.40;;
24521;SDS011;12680;57.804;12.190;2023-05-16T05:58:30;10.25;;;8.65;;
24521;SDS011;12680;57.804;12.190;2023-05-16T06:00:57;12.68;;;9.50;;
24521;SDS011;12680;57.804;12.190;2023-05-16T06:03:23;11.13;;;9.18;;
24521;SDS011;12680;57.804;12.190;2023-05-16T06:05:50;12.88;;;9.90;;
24521;SDS011;12680;57.804;12.190;2023-05-16T06:08:17;11.65;;;9.65;;
24521;SDS011;12680;57.804;12.190;2023-05-16T06:10:47;12.18;;;9.23;;
24521;SDS011;12680;57.804;12.190;2023-05-16T06:13:13;13.30;;;9.00;;
24521;SDS011;12680;57.804;12.190;2023-05-16T06:15:40;10.63;;;8.90;;
24521;SDS011;12680;57.804;12.190;2023-05-16T06:18:07;11.18;;;9.43;;
24521;SDS011;12680;57.804;12.190;2023-05-16T06:20:34;11.38;;;9.40;;
24521;SDS011;12680;57.804;12.190;2023-05-16T06:23:01;9.63;;;8.35;;
24521;SDS011;12680;57.804;12.190;2023-05-16T06:25:27;9.73;;;8.15;;
24521;SDS011;12680;57.804;12.190;2023-05-16T06:27:55;9.15;;;8.13;;
24521;SDS011;12680;57.804;12.190;2023-05-16T06:30:22;8.95;;;7.95;;
24521;SDS011;12680;57.804;12.190;2023-05-16T06:32:49;8.57;;;6.80;;
24521;SDS011;12680;57.804;12.190;2023-05-16T06:35:15;7.30;;;6.47;;
24521;SDS011;12680;57.804;12.190;2023-05-16T06:37:42;7.88;;;6.93;;
24521;SDS011;12680;57.804;12.190;2023-05-16T06:40:09;8.35;;;7.32;;
24521;SDS011;12680;57.804;12.190;2023-05-16T06:42:36;7.70;;;6.90;;
24521;SDS011;12680;57.804;12.190;2023-05-16T06:45:04;6.57;;;5.97;;
24521;SDS011;12680;57.804;12.190;2023-05-16T06:47:31;6.63;;;5.93;;
24521;SDS011;12680;57.804;12.190;2023-05-16T06:50:01;6.20;;;5.50;;
24521;SDS011;12680;57.804;12.190;2023-05-16T06:52:28;7.05;;;6.35;;
24521;SDS011;12680;57.804;12.190;2023-05-16T06:54:55;7.78;;;6.97;;
24521;SDS011;12680;57.804;12.190;2023-05-16T06:57:22;9.38;;;7.30;;
24521;SDS011;12680;57.804;12.190;2023-05-16T06:59:48;10.05;;;7.60;;
24521;SDS011;12680;57.804;12.190;2023-05-16T07:02:15;8.75;;;7.85;;
24521;SDS011;12680;57.804;12.190;2023-05-16T07:04:42;13.15;;;9.05;;
24521;SDS011;12680;57.804;12.190;2023-05-16T07:07:09;13.52;;;9.80;;
24521;SDS011;12680;57.804;12.190;2023-05-16T07:09:36;11.50;;;9.40;;
24521;SDS011;12680;57.804;12.190;2023-05-16T07:12:03;12.13;;;9.45;;
24521;SDS011;12680;57.804;12.190;2023-05-16T07:14:30;12.05;;;9.30;;
24521;SDS011;12680;57.804;12.190;2023-05-16T07:16:57;9.77;;;8.68;;
24521;SDS011;12680;57.804;12.190;2023-05-16T07:19:23;10.48;;;8.93;;
24521;SDS011;12680;57.804;12.190;2023-05-16T07:21:51;10.25;;;8.30;;
24521;SDS011;12680;57.804;12.190;2023-05-16T07:24:19;10.35;;;7.97;;
24521;SDS011;12680;57.804;12.190;2023-05-16T07:26:45;9.90;;;8.43;;
24521;SDS011;12680;57.804;12.190;2023-05-16T07:29:12;8.45;;;6.80;;
24521;SDS011;12680;57.804;12.190;2023-05-16T07:31:39;10.02;;;7.90;;
24521;SDS011;12680;57.804;12.190;2023-05-16T07:34:06;13.43;;;10.07;;
24521;SDS011;12680;57.804;12.190;2023-05-16T07:36:35;10.02;;;8.82;;
24521;SDS011;12680;57.804;12.190;2023-05-16T07:39:02;10.15;;;9.05;;
24521;SDS011;12680;57.804;12.190;2023-05-16T07:41:29;16.15;;;10.27;;
24521;SDS011;12680;57.804;12.190;2023-05-16T07:43:57;15.35;;;12.20;;
24521;SDS011;12680;57.804;12.190;2023-05-16T07:46:24;20.17;;;12.45;;
24521;SDS011;12680;57.804;12.190;2023-05-16T07:48:51;16.23;;;12.77;;
24521;SDS011;12680;57.804;12.190;2023-05-16T07:51:18;18.80;;;13.10;;
24521;SDS011;12680;57.804;12.190;2023-05-16T07:53:45;15.85;;;13.18;;
24521;SDS011;12680;57.804;12.190;2023-05-16T07:56:12;16.05;;;11.80;;
24521;SDS011;12680;57.804;12.190;2023-05-16T07:58:38;15.27;;;11.95;;
24521;SDS011;12680;57.804;12.190;2023-05-16T08:01:06;16.27;;;12.52;;
24521;SDS011;12680;57.804;12.190;2023-05-16T08:03:34;13.15;;;11.18;;
24521;SDS011;12680;57.804;12.190;2023-05-16T08:06:01;14.23;;;11.18;;
24521;SDS011;12680;57.804;12.190;2023-05-16T08:08:28;14.70;;;12.32;;
24521;SDS011;12680;57.804;12.190;2023-05-16T08:10:55;14.25;;;12.18;;
24521;SDS011;12680;57.804;12.190;2023-05-16T08:13:22;20.27;;;12.52;;
24521;SDS011;12680;57.804;12.190;2023-05-16T08:15:49;14.40;;;12.30;;
24521;SDS011;12680;57.804;12.190;2023-05-16T08:18:16;16.65;;;10.95;;
24521;SDS011;12680;57.804;12.190;2023-05-16T08:20:45;13.20;;;11.80;;
24521;SDS011;12680;57.804;12.190;2023-05-16T08:23:12;17.83;;;11.30;;
24521;SDS011;12680;57.804;12.190;2023-05-16T08:25:39;14.07;;;11.15;;
24521;SDS011;12680;57.804;12.190;2023-05-16T08:28:06;12.27;;;10.45;;
24521;SDS011;12680;57.804;12.190;2023-05-16T08:30:33;13.35;;;10.43;;
24521;SDS011;12680;57.804;12.190;2023-05-16T08:33:00;11.75;;;8.68;;
24521;SDS011;12680;57.804;12.190;2023-05-16T08:35:30;11.95;;;9.10;;
24521;SDS011;12680;57.804;12.190;2023-05-16T08:37:57;11.30;;;9.27;;
24521;SDS011;12680;57.804;12.190;2023-05-16T08:40:24;11.07;;;8.77;;
24521;SDS011;12680;57.804;12.190;2023-05-16T08:42:52;13.05;;;8.40;;
24521;SDS011;12680;57.804;12.190;2023-05-16T08:45:20;11.05;;;8.00;;
24521;SDS011;12680;57.804;12.190;2023-05-16T08:47:48;10.40;;;7.43;;
24521;SDS011;12680;57.804;12.190;2023-05-16T08:50:16;10.20;;;7.93;;
24521;SDS011;12680;57.804;12.190;2023-05-16T08:52:43;7.50;;;6.70;;
24521;SDS011;12680;57.804;12.190;2023-05-16T08:55:13;9.07;;;6.65;;
24521;SDS011;12680;57.804;12.190;2023-05-16T08:57:42;9.15;;;7.35;;
24521;SDS011;12680;57.804;12.190;2023-05-16T09:00:10;9.30;;;6.80;;
24521;SDS011;12680;57.804;12.190;2023-05-16T09:02:41;6.28;;;5.47;;
24521;SDS011;12680;57.804;12.190;2023-05-16T09:05:11;8.70;;;6.35;;
24521;SDS011;12680;57.804;12.190;2023-05-16T09:07:40;6.63;;;5.93;;
24521;SDS011;12680;57.804;12.190;2023-05-16T09:10:07;7.25;;;5.82;;
24521;SDS011;12680;57.804;12.190;2023-05-16T09:12:35;6.40;;;5.20;;
24521;SDS011;12680;57.804;12.190;2023-05-16T09:15:03;5.82;;;4.82;;
24521;SDS011;12680;57.804;12.190;2023-05-16T09:17:35;7.75;;;4.57;;
24521;SDS011;12680;57.804;12.190;2023-05-16T09:25:05;5.60;;;4.35;;
24521;SDS011;12680;57.804;12.190;2023-05-16T09:27:45;9.68;;;4.00;;
24521;SDS011;12680;57.804;12.190;2023-05-16T09:30:14;6.97;;;4.32;;
24521;SDS011;12680;57.804;12.190;2023-05-16T09:32:43;6.47;;;3.65;;
24521;SDS011;12680;57.804;12.190;2023-05-16T09:35:14;7.95;;;4.30;;
24521;SDS011;12680;57.804;12.190;2023-05-16T09:37:52;5.18;;;3.60;;
24521;SDS011;12680;57.804;12.190;2023-05-16T09:40:20;3.97;;;3.45;;
24521;SDS011;12680;57.804;12.190;2023-05-16T09:43:01;5.57;;;3.03;;
24521;SDS011;12680;57.804;12.190;2023-05-16T09:45:30;3.70;;;2.80;;
24521;SDS011;12680;57.804;12.190;2023-05-16T09:48:04;3.60;;;2.88;;
24521;SDS011;12680;57.804;12.190;2023-05-16T09:50:33;6.20;;;3.17;;
24521;SDS011;12680;57.804;12.190;2023-05-16T09:53:02;4.85;;;3.55;;
24521;SDS011;12680;57.804;12.190;2023-05-16T09:55:30;5.72;;;3.72;;
24521;SDS011;12680;57.804;12.190;2023-05-16T09:57:57;5.25;;;3.88;;
24521;SDS011;12680;57.804;12.190;2023-05-16T10:00:31;7.32;;;4.28;;
24521;SDS011;12680;57.804;12.190;2023-05-16T10:02:59;6.40;;;3.65;;
24521;SDS011;12680;57.804;12.190;2023-05-16T10:05:31;5.88;;;3.97;;
24521;SDS011;12680;57.804;12.190;2023-05-16T10:07:58;4.78;;;3.70;;
24521;SDS011;12680;57.804;12.190;2023-05-16T10:10:28;7.30;;;4.25;;
24521;SDS011;12680;57.804;12.190;2023-05-16T10:12:56;4.90;;;3.65;;
24521;SDS011;12680;57.804;12.190;2023-05-16T10:15:25;6.15;;;4.10;;
24521;SDS011;12680;57.804;12.190;2023-05-16T10:17:53;4.20;;;3.80;;
24521;SDS011;12680;57.804;12.190;2023-05-16T10:20:25;7.18;;;3.97;;
24521;SDS011;12680;57.804;12.190;2023-05-16T10:22:52;5.32;;;3.80;;
24521;SDS011;12680;57.804;12.190;2023-05-16T10:25:27;4.68;;;3.45;;
24521;SDS011;12680;57.804;12.190;2023-05-16T10:27:58;4.57;;;3.60;;
24521;SDS011;12680;57.804;12.190;2023-05-16T10:30:25;5.90;;;3.33;;
24521;SDS011;12680;57.804;12.190;2023-05-16T10:32:52;5.65;;;3.00;;
24521;SDS011;12680;57.804;12.190;2023-05-16T10:35:21;3.90;;;3.05;;
24521;SDS011;12680;57.804;12.190;2023-05-16T10:37:49;3.72;;;3.30;;
24521;SDS011;12680;57.804;12.190;2023-05-16T10:40:16;4.20;;;3.03;;
24521;SDS011;12680;57.804;12.190;2023-05-16T10:42:54;6.38;;;3.83;;
24521;SDS011;12680;57.804;12.190;2023-05-16T10:45:22;6.60;;;3.30;;
24521;SDS011;12680;57.804;12.190;2023-05-16T10:47:59;7.10;;;3.53;;
24521;SDS011;12680;57.804;12.190;2023-05-16T10:50:42;5.57;;;3.67;;
24521;SDS011;12680;57.804;12.190;2023-05-16T10:53:20;5.18;;;3.25;;
24521;SDS011;12680;57.804;12.190;2023-05-16T10:58:23;4.95;;;4.00;;
24521;SDS011;12680;57.804;12.190;2023-05-16T11:06:30;8.45;;;4.35;;
24521;SDS011;12680;57.804;12.190;2023-05-16T11:14:20;5.65;;;5.10;;
24521;SDS011;12680;57.804;12.190;2023-05-16T11:19:40;8.32;;;5.53;;
24521;SDS011;12680;57.804;12.190;2023-05-16T11:24:53;7.65;;;5.07;;
24521;SDS011;12680;57.804;12.190;2023-05-16T11:27:50;5.72;;;4.43;;
24521;SDS011;12680;57.804;12.190;2023-05-16T11:30:17;6.18;;;4.72;;
24521;SDS011;12680;57.804;12.190;2023-05-16T11:32:45;6.82;;;4.70;;
24521;SDS011;12680;57.804;12.190;2023-05-16T11:35:14;8.90;;;5.30;;
24521;SDS011;12680;57.804;12.190;2023-05-16T11:37:42;5.70;;;5.10;;
24521;SDS011;12680;57.804;12.190;2023-05-16T11:40:11;6.20;;;4.55;;
24521;SDS011;12680;57.804;12.190;2023-05-16T11:42:40;8.48;;;5.70;;
24521;SDS011;12680;57.804;12.190;2023-05-16T11:45:09;9.25;;;5.85;;
24521;SDS011;12680;57.804;12.190;2023-05-16T11:47:39;8.57;;;5.20;;
24521;SDS011;12680;57.804;12.190;2023-05-16T11:50:20;6.40;;;4.95;;
24521;SDS011;12680;57.804;12.190;2023-05-16T11:52:52;5.63;;;4.60;;
24521;SDS011;12680;57.804;12.190;2023-05-16T11:55:22;5.05;;;4.35;;
24521;SDS011;12680;57.804;12.190;2023-05-16T11:58:06;6.57;;;3.80;;
24521;SDS011;12680;57.804;12.190;2023-05-16T12:00:33;5.82;;;3.42;;
24521;SDS011;12680;57.804;12.190;2023-05-16T12:03:01;4.97;;;3.53;;
24521;SDS011;12680;57.804;12.190;2023-05-16T12:05:30;5.55;;;4.00;;
24521;SDS011;12680;57.804;12.190;2023-05-16T12:08:00;4.90;;;3.60;;
24521;SDS011;12680;57.804;12.190;2023-05-16T12:10:29;6.60;;;3.40;;
24521;SDS011;12680;57.804;12.190;2023-05-16T12:12:59;4.38;;;3.50;;
24521;SDS011;12680;57.804;12.190;2023-05-16T12:15:27;6.72;;;3.40;;
24521;SDS011;12680;57.804;12.190;2023-05-16T12:17:54;4.40;;;3.35;;
24521;SDS011;12680;57.804;12.190;2023-05-16T12:20:22;3.78;;;3.33;;
24521;SDS011;12680;57.804;12.190;2023-05-16T12:22:51;6.78;;;3.65;;
24521;SDS011;12680;57.804;12.190;2023-05-16T12:25:24;5.97;;;4.07;;
24521;SDS011;12680;57.804;12.190;2023-05-16T12:27:59;7.00;;;3.92;;
24521;SDS011;12680;57.804;12.190;2023-05-16T12:30:28;5.35;;;3.55;;
24521;SDS011;12680;57.804;12.190;2023-05-16T12:32:57;7.30;;;4.18;;
24521;SDS011;12680;57.804;12.190;2023-05-16T12:35:25;7.15;;;4.30;;
24521;SDS011;12680;57.804;12.190;2023-05-16T12:37:56;6.35;;;4.07;;
24521;SDS011;12680;57.804;12.190;2023-05-16T12:40:23;5.88;;;4.10;;
24521;SDS011;12680;57.804;12.190;2023-05-16T12:42:54;4.18;;;3.70;;
24521;SDS011;12680;57.804;12.190;2023-05-16T12:45:21;10.07;;;4.38;;
24521;SDS011;12680;57.804;12.190;2023-05-16T12:47:48;6.72;;;3.70;;
24521;SDS011;12680;57.804;12.190;2023-05-16T12:50:16;7.10;;;3.60;;
24521;SDS011;12680;57.804;12.190;2023-05-16T12:52:49;7.10;;;3.88;;
24521;SDS011;12680;57.804;12.190;2023-05-16T12:55:18;6.68;;;4.10;;
24521;SDS011;12680;57.804;12.190;2023-05-16T12:57:46;4.93;;;3.90;;
24521;SDS011;12680;57.804;12.190;2023-05-16T13:00:17;7.32;;;4.07;;
24521;SDS011;12680;57.804;12.190;2023-05-16T13:02:46;8.10;;;4.23;;
24521;SDS011;12680;57.804;12.190;2023-05-16T13:05:14;8.48;;;4.20;;
24521;SDS011;12680;57.804;12.190;2023-05-16T13:07:41;7.00;;;4.25;;
24521;SDS011;12680;57.804;12.190;2023-05-16T13:10:08;5.22;;;4.32;;
24521;SDS011;12680;57.804;12.190;2023-05-16T13:12:36;6.75;;;4.35;;
24521;SDS011;12680;57.804;12.190;2023-05-16T13:15:07;7.10;;;4.57;;
24521;SDS011;12680;57.804;12.190;2023-05-16T13:17:36;5.07;;;3.97;;
24521;SDS011;12680;57.804;12.190;2023-05-16T13:20:04;5.53;;;4.90;;
24521;SDS011;12680;57.804;12.190;2023-05-16T13:22:35;8.52;;;4.45;;
24521;SDS011;12680;57.804;12.190;2023-05-16T13:25:03;5.18;;;4.10;;
24521;SDS011;12680;57.804;12.190;2023-05-16T13:27:31;5.30;;;4.40;;
24521;SDS011;12680;57.804;12.190;2023-05-16T13:29:59;5.32;;;4.30;;
24521;SDS011;12680;57.804;12.190;2023-05-16T13:32:26;4.57;;;4.00;;
24521;SDS011;12680;57.804;12.190;2023-05-16T13:34:53;7.15;;;4.43;;
24521;SDS011;12680;57.804;12.190;2023-05-16T13:37:20;7.35;;;4.18;;
24521;SDS011;12680;57.804;12.190;2023-05-16T13:39:49;8.20;;;4.47;;
24521;SDS011;12680;57.804;12.190;2023-05-16T13:42:16;9.50;;;4.38;;
24521;SDS011;12680;57.804;12.190;2023-05-16T13:44:43;6.72;;;4.18;;
24521;SDS011;12680;57.804;12.190;2023-05-16T13:47:10;6.35;;;4.40;;
24521;SDS011;12680;57.804;12.190;2023-05-16T13:49:37;5.25;;;3.95;;
24521;SDS011;12680;57.804;12.190;2023-05-16T13:52:04;6.53;;;4.05;;
24521;SDS011;12680;57.804;12.190;2023-05-16T13:54:31;4.75;;;3.90;;
24521;SDS011;12680;57.804;12.190;2023-05-16T13:56:58;6.78;;;3.95;;
24521;SDS011;12680;57.804;12.190;2023-05-16T13:59:26;6.75;;;4.13;;
24521;SDS011;12680;57.804;12.190;2023-05-16T14:02:13;4.72;;;3.65;;
24521;SDS011;12680;57.804;12.190;2023-05-16T14:04:40;6.07;;;3.53;;
24521;SDS011;12680;57.804;12.190;2023-05-16T14:07:07;4.38;;;3.63;;
24521;SDS011;12680;57.804;12.190;2023-05-16T14:09:34;7.22;;;3.67;;
24521;SDS011;12680;57.804;12.190;2023-05-16T14:12:05;4.38;;;3.78;;
24521;SDS011;12680;57.804;12.190;2023-05-16T14:14:35;4.50;;;3.80;;
24521;SDS011;12680;57.804;12.190;2023-05-16T14:17:02;3.30;;;3.00;;
24521;SDS011;12680;57.804;12.190;2023-05-16T14:19:29;6.05;;;3.70;;
24521;SDS011;12680;57.804;12.190;2023-05-16T14:21:56;5.55;;;3.70;;
24521;SDS011;12680;57.804;12.190;2023-05-16T14:24:23;8.32;;;4.05;;
24521;SDS011;12680;57.804;12.190;2023-05-16T14:26:50;4.88;;;4.00;;
24521;SDS011;12680;57.804;12.190;2023-05-16T14:29:23;6.28;;;4.22;;
24521;SDS011;12680;57.804;12.190;2023-05-16T14:31:51;6.70;;;4.40;;
24521;SDS011;12680;57.804;12.190;2023-05-16T14:34:18;8.18;;;4.32;;
24521;SDS011;12680;57.804;12.190;2023-05-16T14:36:47;6.60;;;4.60;;
24521;SDS011;12680;57.804;12.190;2023-05-16T14:39:14;7.70;;;5.15;;
24521;SDS011;12680;57.804;12.190;2023-05-16T14:41:41;5.88;;;4.32;;
24521;SDS011;12680;57.804;12.190;2023-05-16T14:44:08;5.25;;;4.53;;
24521;SDS011;12680;57.804;12.190;2023-05-16T14:46:35;6.13;;;4.47;;
24521;SDS011;12680;57.804;12.190;2023-05-16T14:49:01;5.53;;;4.50;;
24521;SDS011;12680;57.804;12.190;2023-05-16T14:51:28;6.25;;;4.28;;
24521;SDS011;12680;57.804;12.190;2023-05-16T14:53:57;6.82;;;4.32;;
24521;SDS011;12680;57.804;12.190;2023-05-16T14:56:24;5.80;;;4.78;;
24521;SDS011;12680;57.804;12.190;2023-05-16T14:58:52;4.95;;;4.53;;
24521;SDS011;12680;57.804;12.190;2023-05-16T15:01:19;7.60;;;4.80;;